sensor_id;sensor_type;location;lat;lon;timestamp;temperature;humidity
25360;DHT22;13311;51.386;0.016;2022-10-31T00:01:46;14.10;99.90
25360;DHT22;13311;51.386;0.016;2022-10-31T00:06:47;14.10;99.90
25360;DHT22;13311;51.386;0.016;2022-10-31T00:11:47;14.10;99.90
25360;DHT22;13311;51.386;0.016;2022-10-31T00:16:48;14.10;99.90
25360;DHT22;13311;51.386;0.016;2022-10-31T00:21:51;14.10;99.90
25360;DHT22;13311;51.386;0.016;2022-10-31T00:26:52;14.10;99.80
25360;DHT22;13311;51.386;0.016;2022-10-31T00:31:53;14.00;99.90
25360;DHT22;13311;51.386;0.016;2022-10-31T00:36:54;14.00;99.90
25360;DHT22;13311;51.386;0.016;2022-10-31T00:41:54;14.00;99.90
25360;DHT22;13311;51.386;0.016;2022-10-31T00:46:55;13.90;99.90
25360;DHT22;13311;51.386;0.016;2022-10-31T00:51:55;13.90;99.90
25360;DHT22;13311;51.386;0.016;2022-10-31T00:56:57;13.90;99.90
25360;DHT22;13311;51.386;0.016;2022-10-31T01:01:58;13.80;99.90
25360;DHT22;13311;51.386;0.016;2022-10-31T01:06:58;13.80;99.90
25360;DHT22;13311;51.386;0.016;2022-10-31T01:11:59;13.80;99.90
25360;DHT22;13311;51.386;0.016;2022-10-31T01:17:00;13.80;99.90
25360;DHT22;13311;51.386;0.016;2022-10-31T01:22:01;13.70;99.80
25360;DHT22;13311;51.386;0.016;2022-10-31T01:27:02;13.70;99.90
25360;DHT22;13311;51.386;0.016;2022-10-31T01:32:03;13.70;99.70
25360;DHT22;13311;51.386;0.016;2022-10-31T01:37:04;13.70;99.80
25360;DHT22;13311;51.386;0.016;2022-10-31T01:42:05;13.70;99.90
25360;DHT22;13311;51.386;0.016;2022-10-31T01:47:13;13.70;99.90
25360;DHT22;13311;51.386;0.016;2022-10-31T01:52:32;13.80;99.90
25360;DHT22;13311;51.386;0.016;2022-10-31T01:57:40;14.00;99.90
25360;DHT22;13311;51.386;0.016;2022-10-31T02:02:42;14.10;99.90
25360;DHT22;13311;51.386;0.016;2022-10-31T02:12:57;14.40;99.90
25360;DHT22;13311;51.386;0.016;2022-10-31T02:17:59;14.50;99.90
25360;DHT22;13311;51.386;0.016;2022-10-31T02:34:34;14.60;99.90
25360;DHT22;13311;51.386;0.016;2022-10-31T02:45:48;14.70;99.90
25360;DHT22;13311;51.386;0.016;2022-10-31T02:51:00;14.80;99.90
25360;DHT22;13311;51.386;0.016;2022-10-31T02:56:13;14.90;99.90
25360;DHT22;13311;51.386;0.016;2022-10-31T03:12:58;15.10;99.90
25360;DHT22;13311;51.386;0.016;2022-10-31T03:18:29;15.10;99.90
25360;DHT22;13311;51.386;0.016;2022-10-31T03:23:35;15.20;99.90
25360;DHT22;13311;51.386;0.016;2022-10-31T03:28:43;15.20;99.90
25360;DHT22;13311;51.386;0.016;2022-10-31T03:33:53;15.10;99.90
25360;DHT22;13311;51.386;0.016;2022-10-31T03:38:57;15.20;99.90
25360;DHT22;13311;51.386;0.016;2022-10-31T03:44:02;15.20;99.90
25360;DHT22;13311;51.386;0.016;2022-10-31T03:49:04;15.20;99.90
25360;DHT22;13311;51.386;0.016;2022-10-31T03:54:24;15.30;99.90
25360;DHT22;13311;51.386;0.016;2022-10-31T03:59:32;15.30;99.90
25360;DHT22;13311;51.386;0.016;2022-10-31T04:04:37;15.40;99.90
25360;DHT22;13311;51.386;0.016;2022-10-31T04:09:40;15.40;99.90
25360;DHT22;13311;51.386;0.016;2022-10-31T04:14:45;15.40;99.90
25360;DHT22;13311;51.386;0.016;2022-10-31T04:19:47;15.30;99.90
25360;DHT22;13311;51.386;0.016;2022-10-31T04:24:48;15.30;99.90
25360;DHT22;13311;51.386;0.016;2022-10-31T04:29:48;15.30;99.90
25360;DHT22;13311;51.386;0.016;2022-10-31T04:34:49;15.30;99.90
25360;DHT22;13311;51.386;0.016;2022-10-31T04:39:50;15.30;99.90
25360;DHT22;13311;51.386;0.016;2022-10-31T04:44:50;15.30;99.90
25360;DHT22;13311;51.386;0.016;2022-10-31T04:49:51;15.30;99.90
25360;DHT22;13311;51.386;0.016;2022-10-31T04:54:52;15.20;99.90
25360;DHT22;13311;51.386;0.016;2022-10-31T04:59:53;15.20;99.90
25360;DHT22;13311;51.386;0.016;2022-10-31T05:04:53;15.30;99.90
25360;DHT22;13311;51.386;0.016;2022-10-31T05:09:54;15.30;99.90
25360;DHT22;13311;51.386;0.016;2022-10-31T05:14:55;15.30;99.90
25360;DHT22;13311;51.386;0.016;2022-10-31T05:19:55;15.30;99.90
25360;DHT22;13311;51.386;0.016;2022-10-31T05:24:56;15.30;99.90
25360;DHT22;13311;51.386;0.016;2022-10-31T05:29:57;15.30;99.90
25360;DHT22;13311;51.386;0.016;2022-10-31T05:34:58;15.30;99.90
25360;DHT22;13311;51.386;0.016;2022-10-31T05:39:58;15.20;99.90
25360;DHT22;13311;51.386;0.016;2022-10-31T05:44:59;15.20;99.90
25360;DHT22;13311;51.386;0.016;2022-10-31T05:50:00;15.10;99.90
25360;DHT22;13311;51.386;0.016;2022-10-31T05:55:00;15.10;99.90
25360;DHT22;13311;51.386;0.016;2022-10-31T06:00:01;15.00;99.90
25360;DHT22;13311;51.386;0.016;2022-10-31T06:05:03;14.90;99.90
25360;DHT22;13311;51.386;0.016;2022-10-31T06:10:07;14.90;99.90
25360;DHT22;13311;51.386;0.016;2022-10-31T06:15:08;14.80;99.90
25360;DHT22;13311;51.386;0.016;2022-10-31T06:20:10;14.70;99.90
25360;DHT22;13311;51.386;0.016;2022-10-31T06:25:11;14.70;99.90
25360;DHT22;13311;51.386;0.016;2022-10-31T06:30:12;14.70;99.90
25360;DHT22;13311;51.386;0.016;2022-10-31T06:35:13;14.60;99.90
25360;DHT22;13311;51.386;0.016;2022-10-31T06:40:14;14.40;99.90
25360;DHT22;13311;51.386;0.016;2022-10-31T06:45:14;14.40;99.90
25360;DHT22;13311;51.386;0.016;2022-10-31T06:50:15;14.20;99.90
25360;DHT22;13311;51.386;0.016;2022-10-31T06:55:16;14.10;99.90
25360;DHT22;13311;51.386;0.016;2022-10-31T07:00:17;14.10;99.90
25360;DHT22;13311;51.386;0.016;2022-10-31T07:05:18;14.00;99.90
25360;DHT22;13311;51.386;0.016;2022-10-31T07:10:18;14.00;99.90
25360;DHT22;13311;51.386;0.016;2022-10-31T07:15:19;13.90;99.90
25360;DHT22;13311;51.386;0.016;2022-10-31T07:20:20;13.80;99.90
25360;DHT22;13311;51.386;0.016;2022-10-31T07:25:21;13.80;99.90
25360;DHT22;13311;51.386;0.016;2022-10-31T07:30:22;13.80;99.90
25360;DHT22;13311;51.386;0.016;2022-10-31T07:35:25;13.80;99.90
25360;DHT22;13311;51.386;0.016;2022-10-31T07:40:27;13.80;99.90
25360;DHT22;13311;51.386;0.016;2022-10-31T07:45:28;13.80;99.90
25360;DHT22;13311;51.386;0.016;2022-10-31T07:50:30;13.80;99.90
25360;DHT22;13311;51.386;0.016;2022-10-31T07:55:34;13.80;99.90
25360;DHT22;13311;51.386;0.016;2022-10-31T08:00:37;13.90;99.90
25360;DHT22;13311;51.386;0.016;2022-10-31T08:05:39;14.00;99.90
25360;DHT22;13311;51.386;0.016;2022-10-31T08:10:46;14.10;99.90
25360;DHT22;13311;51.386;0.016;2022-10-31T08:15:46;14.20;99.90
25360;DHT22;13311;51.386;0.016;2022-10-31T08:20:50;14.30;99.90
25360;DHT22;13311;51.386;0.016;2022-10-31T08:25:51;14.40;99.90
25360;DHT22;13311;51.386;0.016;2022-10-31T08:30:52;14.60;99.90
25360;DHT22;13311;51.386;0.016;2022-10-31T08:35:52;15.00;99.90
25360;DHT22;13311;51.386;0.016;2022-10-31T08:40:53;15.30;99.90
25360;DHT22;13311;51.386;0.016;2022-10-31T08:45:54;15.70;99.90
25360;DHT22;13311;51.386;0.016;2022-10-31T08:50:57;16.10;99.90
25360;DHT22;13311;51.386;0.016;2022-10-31T08:55:58;16.40;99.90
25360;DHT22;13311;51.386;0.016;2022-10-31T09:01:00;16.80;99.90
25360;DHT22;13311;51.386;0.016;2022-10-31T09:06:02;17.20;99.90
25360;DHT22;13311;51.386;0.016;2022-10-31T09:11:05;17.50;99.90
25360;DHT22;13311;51.386;0.016;2022-10-31T09:16:07;17.80;99.90
25360;DHT22;13311;51.386;0.016;2022-10-31T09:21:07;18.10;99.90
25360;DHT22;13311;51.386;0.016;2022-10-31T09:26:08;18.30;99.80
25360;DHT22;13311;51.386;0.016;2022-10-31T09:31:09;18.50;99.80
25360;DHT22;13311;51.386;0.016;2022-10-31T09:36:09;18.70;99.30
25360;DHT22;13311;51.386;0.016;2022-10-31T09:41:28;19.00;99.10
25360;DHT22;13311;51.386;0.016;2022-10-31T09:52:09;19.60;98.30
25360;DHT22;13311;51.386;0.016;2022-10-31T09:57:16;19.60;96.70
25360;DHT22;13311;51.386;0.016;2022-10-31T10:02:24;19.40;96.60
25360;DHT22;13311;51.386;0.016;2022-10-31T10:18:37;19.10;97.20
25360;DHT22;13311;51.386;0.016;2022-10-31T10:23:48;19.20;96.90
25360;DHT22;13311;51.386;0.016;2022-10-31T10:29:02;19.20;97.30
25360;DHT22;13311;51.386;0.016;2022-10-31T10:34:22;19.30;96.40
25360;DHT22;13311;51.386;0.016;2022-10-31T10:39:36;19.20;96.60
25360;DHT22;13311;51.386;0.016;2022-10-31T10:44:42;19.20;97.20
25360;DHT22;13311;51.386;0.016;2022-10-31T11:00:41;19.30;96.90
25360;DHT22;13311;51.386;0.016;2022-10-31T11:05:55;19.20;96.30
25360;DHT22;13311;51.386;0.016;2022-10-31T11:21:29;19.90;96.30
25360;DHT22;13311;51.386;0.016;2022-10-31T11:26:33;19.70;94.70
25360;DHT22;13311;51.386;0.016;2022-10-31T11:31:35;19.50;94.70
25360;DHT22;13311;51.386;0.016;2022-10-31T11:36:38;19.30;94.50
25360;DHT22;13311;51.386;0.016;2022-10-31T11:41:40;19.30;94.50
25360;DHT22;13311;51.386;0.016;2022-10-31T11:46:56;19.00;94.50
25360;DHT22;13311;51.386;0.016;2022-10-31T11:52:04;18.90;95.00
25360;DHT22;13311;51.386;0.016;2022-10-31T12:02:29;18.70;94.90
25360;DHT22;13311;51.386;0.016;2022-10-31T12:07:30;18.80;95.50
25360;DHT22;13311;51.386;0.016;2022-10-31T12:12:49;19.00;94.50
25360;DHT22;13311;51.386;0.016;2022-10-31T12:18:33;19.00;95.00
25360;DHT22;13311;51.386;0.016;2022-10-31T12:24:10;19.00;94.40
25360;DHT22;13311;51.386;0.016;2022-10-31T12:40:55;18.70;94.90
25360;DHT22;13311;51.386;0.016;2022-10-31T12:46:00;18.90;95.00
25360;DHT22;13311;51.386;0.016;2022-10-31T13:02:18;19.10;94.70
25360;DHT22;13311;51.386;0.016;2022-10-31T13:19:25;18.70;94.40
25360;DHT22;13311;51.386;0.016;2022-10-31T13:24:23;18.50;94.80
25360;DHT22;13311;51.386;0.016;2022-10-31T13:29:33;18.60;95.50
25360;DHT22;13311;51.386;0.016;2022-10-31T13:34:42;18.60;95.30
25360;DHT22;13311;51.386;0.016;2022-10-31T13:40:03;18.50;95.00
25360;DHT22;13311;51.386;0.016;2022-10-31T13:45:22;18.40;95.40
25360;DHT22;13311;51.386;0.016;2022-10-31T13:50:30;18.50;95.50
25360;DHT22;13311;51.386;0.016;2022-10-31T14:00:41;18.30;95.70
25360;DHT22;13311;51.386;0.016;2022-10-31T14:05:52;18.30;95.80
25360;DHT22;13311;51.386;0.016;2022-10-31T14:10:54;18.20;96.10
25360;DHT22;13311;51.386;0.016;2022-10-31T14:21:44;18.10;96.40
25360;DHT22;13311;51.386;0.016;2022-10-31T14:26:58;17.90;96.30
25360;DHT22;13311;51.386;0.016;2022-10-31T14:32:18;17.60;96.50
25360;DHT22;13311;51.386;0.016;2022-10-31T14:37:27;17.70;96.60
25360;DHT22;13311;51.386;0.016;2022-10-31T15:03:46;17.20;97.40
25360;DHT22;13311;51.386;0.016;2022-10-31T15:08:49;17.30;97.50
25360;DHT22;13311;51.386;0.016;2022-10-31T15:13:53;17.50;97.00
25360;DHT22;13311;51.386;0.016;2022-10-31T15:19:02;17.40;97.20
25360;DHT22;13311;51.386;0.016;2022-10-31T15:24:05;17.40;97.30
25360;DHT22;13311;51.386;0.016;2022-10-31T15:29:14;17.50;97.40
25360;DHT22;13311;51.386;0.016;2022-10-31T15:34:20;17.40;97.70
25360;DHT22;13311;51.386;0.016;2022-10-31T15:39:23;17.30;97.90
25360;DHT22;13311;51.386;0.016;2022-10-31T15:44:33;17.20;98.10
25360;DHT22;13311;51.386;0.016;2022-10-31T15:49:38;17.20;98.40
25360;DHT22;13311;51.386;0.016;2022-10-31T15:54:53;17.20;98.40
25360;DHT22;13311;51.386;0.016;2022-10-31T15:59:56;17.10;98.60
25360;DHT22;13311;51.386;0.016;2022-10-31T16:05:00;17.20;98.60
25360;DHT22;13311;51.386;0.016;2022-10-31T16:10:03;17.20;98.40
25360;DHT22;13311;51.386;0.016;2022-10-31T16:15:05;17.30;98.20
25360;DHT22;13311;51.386;0.016;2022-10-31T16:20:36;17.20;98.50
25360;DHT22;13311;51.386;0.016;2022-10-31T16:25:38;17.10;98.70
25360;DHT22;13311;51.386;0.016;2022-10-31T16:30:42;17.20;98.70
25360;DHT22;13311;51.386;0.016;2022-10-31T16:35:44;17.20;98.70
25360;DHT22;13311;51.386;0.016;2022-10-31T16:40:45;17.30;98.60
25360;DHT22;13311;51.386;0.016;2022-10-31T16:45:48;17.30;98.60
25360;DHT22;13311;51.386;0.016;2022-10-31T16:50:52;17.30;98.50
25360;DHT22;13311;51.386;0.016;2022-10-31T16:56:01;17.30;98.60
25360;DHT22;13311;51.386;0.016;2022-10-31T17:01:05;17.30;98.60
25360;DHT22;13311;51.386;0.016;2022-10-31T17:06:12;17.00;98.70
25360;DHT22;13311;51.386;0.016;2022-10-31T17:11:18;17.00;99.00
25360;DHT22;13311;51.386;0.016;2022-10-31T17:16:22;16.90;99.50
25360;DHT22;13311;51.386;0.016;2022-10-31T17:21:23;16.90;99.80
25360;DHT22;13311;51.386;0.016;2022-10-31T17:26:26;16.90;99.90
25360;DHT22;13311;51.386;0.016;2022-10-31T17:31:29;16.80;99.90
25360;DHT22;13311;51.386;0.016;2022-10-31T17:36:32;16.60;99.90
25360;DHT22;13311;51.386;0.016;2022-10-31T17:41:33;16.40;99.90
25360;DHT22;13311;51.386;0.016;2022-10-31T17:46:34;16.30;99.90
25360;DHT22;13311;51.386;0.016;2022-10-31T17:51:35;16.10;99.90
25360;DHT22;13311;51.386;0.016;2022-10-31T17:56:36;16.00;99.90
25360;DHT22;13311;51.386;0.016;2022-10-31T18:01:37;15.80;99.90
25360;DHT22;13311;51.386;0.016;2022-10-31T18:06:38;15.90;99.90
25360;DHT22;13311;51.386;0.016;2022-10-31T18:11:38;15.90;99.90
25360;DHT22;13311;51.386;0.016;2022-10-31T18:16:39;15.80;99.90
25360;DHT22;13311;51.386;0.016;2022-10-31T18:21:40;15.80;99.90
25360;DHT22;13311;51.386;0.016;2022-10-31T18:26:41;16.00;99.90
25360;DHT22;13311;51.386;0.016;2022-10-31T18:31:42;16.00;99.90
25360;DHT22;13311;51.386;0.016;2022-10-31T18:36:46;16.10;99.90
25360;DHT22;13311;51.386;0.016;2022-10-31T18:41:47;16.30;99.90
25360;DHT22;13311;51.386;0.016;2022-10-31T18:46:48;16.30;99.90
25360;DHT22;13311;51.386;0.016;2022-10-31T18:51:49;16.40;99.90
25360;DHT22;13311;51.386;0.016;2022-10-31T18:56:50;16.50;99.90
25360;DHT22;13311;51.386;0.016;2022-10-31T19:01:51;16.50;99.90
25360;DHT22;13311;51.386;0.016;2022-10-31T19:06:53;16.70;99.90
25360;DHT22;13311;51.386;0.016;2022-10-31T19:11:54;16.80;99.90
25360;DHT22;13311;51.386;0.016;2022-10-31T19:16:55;16.90;99.90
25360;DHT22;13311;51.386;0.016;2022-10-31T19:21:56;17.00;99.90
25360;DHT22;13311;51.386;0.016;2022-10-31T19:26:57;17.00;99.90
25360;DHT22;13311;51.386;0.016;2022-10-31T19:32:00;17.10;99.90
25360;DHT22;13311;51.386;0.016;2022-10-31T19:37:00;17.00;99.90
25360;DHT22;13311;51.386;0.016;2022-10-31T19:42:01;17.10;99.90
25360;DHT22;13311;51.386;0.016;2022-10-31T19:47:02;17.20;99.90
25360;DHT22;13311;51.386;0.016;2022-10-31T19:52:03;17.20;99.90
25360;DHT22;13311;51.386;0.016;2022-10-31T19:57:04;17.20;99.90
25360;DHT22;13311;51.386;0.016;2022-10-31T20:02:04;17.30;99.90
25360;DHT22;13311;51.386;0.016;2022-10-31T20:07:05;17.20;99.90
25360;DHT22;13311;51.386;0.016;2022-10-31T20:12:07;17.20;99.90
25360;DHT22;13311;51.386;0.016;2022-10-31T20:17:08;17.20;99.90
25360;DHT22;13311;51.386;0.016;2022-10-31T20:22:10;17.30;99.90
25360;DHT22;13311;51.386;0.016;2022-10-31T20:27:10;17.40;99.90
25360;DHT22;13311;51.386;0.016;2022-10-31T20:32:11;17.40;99.90
25360;DHT22;13311;51.386;0.016;2022-10-31T20:37:12;17.40;99.90
25360;DHT22;13311;51.386;0.016;2022-10-31T20:42:13;17.40;99.90
25360;DHT22;13311;51.386;0.016;2022-10-31T20:47:13;17.50;99.90
25360;DHT22;13311;51.386;0.016;2022-10-31T20:52:14;17.40;99.90
25360;DHT22;13311;51.386;0.016;2022-10-31T20:57:15;17.40;99.90
25360;DHT22;13311;51.386;0.016;2022-10-31T21:02:16;17.40;99.90
25360;DHT22;13311;51.386;0.016;2022-10-31T21:07:17;17.40;99.90
25360;DHT22;13311;51.386;0.016;2022-10-31T21:12:17;17.30;99.90
25360;DHT22;13311;51.386;0.016;2022-10-31T21:17:18;17.30;99.90
25360;DHT22;13311;51.386;0.016;2022-10-31T21:22:19;17.30;99.90
25360;DHT22;13311;51.386;0.016;2022-10-31T21:27:19;17.30;99.90
25360;DHT22;13311;51.386;0.016;2022-10-31T21:32:20;17.20;99.90
25360;DHT22;13311;51.386;0.016;2022-10-31T21:37:21;17.30;99.90
25360;DHT22;13311;51.386;0.016;2022-10-31T21:42:22;17.20;99.90
25360;DHT22;13311;51.386;0.016;2022-10-31T21:47:22;17.20;99.90
25360;DHT22;13311;51.386;0.016;2022-10-31T21:52:23;17.10;99.90
25360;DHT22;13311;51.386;0.016;2022-10-31T21:57:24;17.00;99.90
25360;DHT22;13311;51.386;0.016;2022-10-31T22:02:25;17.10;99.90
25360;DHT22;13311;51.386;0.016;2022-10-31T22:07:25;17.00;99.90
25360;DHT22;13311;51.386;0.016;2022-10-31T22:12:26;17.10;99.90
25360;DHT22;13311;51.386;0.016;2022-10-31T22:17:27;17.20;99.90
25360;DHT22;13311;51.386;0.016;2022-10-31T22:22:28;17.10;99.90
25360;DHT22;13311;51.386;0.016;2022-10-31T22:27:28;17.00;99.90
25360;DHT22;13311;51.386;0.016;2022-10-31T22:32:29;16.90;99.90
25360;DHT22;13311;51.386;0.016;2022-10-31T22:37:30;16.80;99.90
25360;DHT22;13311;51.386;0.016;2022-10-31T22:42:30;17.00;99.90
25360;DHT22;13311;51.386;0.016;2022-10-31T22:47:32;17.00;99.90
25360;DHT22;13311;51.386;0.016;2022-10-31T22:52:33;17.10;99.90
25360;DHT22;13311;51.386;0.016;2022-10-31T22:57:34;16.90;99.90
25360;DHT22;13311;51.386;0.016;2022-10-31T23:02:35;17.00;99.90
25360;DHT22;13311;51.386;0.016;2022-10-31T23:07:36;16.90;99.90
25360;DHT22;13311;51.386;0.016;2022-10-31T23:12:39;17.00;99.90
25360;DHT22;13311;51.386;0.016;2022-10-31T23:17:58;16.90;99.90
25360;DHT22;13311;51.386;0.016;2022-10-31T23:22:59;16.80;99.90
25360;DHT22;13311;51.386;0.016;2022-10-31T23:28:00;16.50;99.90
25360;DHT22;13311;51.386;0.016;2022-10-31T23:33:01;16.50;99.90
25360;DHT22;13311;51.386;0.016;2022-10-31T23:38:01;16.40;99.90
25360;DHT22;13311;51.386;0.016;2022-10-31T23:43:02;16.50;99.90
25360;DHT22;13311;51.386;0.016;2022-10-31T23:48:03;16.50;99.90
25360;DHT22;13311;51.386;0.016;2022-10-31T23:53:04;16.50;99.90
25360;DHT22;13311;51.386;0.016;2022-10-31T23:58:05;16.50;99.90
